sensor_id;sensor_type;location;lat;lon;timestamp;P1;P2;P0
76330;PMS7003;65148;51.912;15.570;2023-08-12T00:02:46;13;12;10
76330;PMS7003;65148;51.912;15.570;2023-08-12T00:17:47;12;11;9
76330;PMS7003;65148;51.912;15.570;2023-08-12T00:50:46;14;13;11
76330;PMS7003;65148;51.912;15.570;2023-08-12T01:05:47;13;12;10
76330;PMS7003;65148;51.912;15.570;2023-08-12T01:20:48;16;16;14
76330;PMS7003;65148;51.912;15.570;2023-08-12T01:36:16;16;15;13
76330;PMS7003;65148;51.912;15.570;2023-08-12T01:51:18;15;15;12
76330;PMS7003;65148;51.912;15.570;2023-08-12T02:06:19;14;14;10
76330;PMS7003;65148;51.912;15.570;2023-08-12T02:21:20;17;17;13
76330;PMS7003;65148;51.912;15.570;2023-08-12T02:36:33;16;15;12
76330;PMS7003;65148;51.912;15.570;2023-08-12T02:51:34;16;16;14
76330;PMS7003;65148;51.912;15.570;2023-08-12T03:06:35;15;15;12
76330;PMS7003;65148;51.912;15.570;2023-08-12T03:21:36;14;14;12
76330;PMS7003;65148;51.912;15.570;2023-08-12T03:36:56;14;14;12
76330;PMS7003;65148;51.912;15.570;2023-08-12T03:51:58;16;16;12
76330;PMS7003;65148;51.912;15.570;2023-08-12T04:06:59;17;17;14
76330;PMS7003;65148;51.912;15.570;2023-08-12T04:22:00;15;15;12
76330;PMS7003;65148;51.912;15.570;2023-08-12T04:37:20;16;16;13
76330;PMS7003;65148;51.912;15.570;2023-08-12T04:52:21;17;17;14
76330;PMS7003;65148;51.912;15.570;2023-08-12T05:07:22;18;18;15
76330;PMS7003;65148;51.912;15.570;2023-08-12T05:22:23;20;20;17
76330;PMS7003;65148;51.912;15.570;2023-08-12T05:37:43;20;20;16
76330;PMS7003;65148;51.912;15.570;2023-08-12T05:52:45;19;19;15
76330;PMS7003;65148;51.912;15.570;2023-08-12T06:07:45;21;21;16
76330;PMS7003;65148;51.912;15.570;2023-08-12T06:22:46;20;20;16
76330;PMS7003;65148;51.912;15.570;2023-08-12T06:38:07;17;16;12
76330;PMS7003;65148;51.912;15.570;2023-08-12T06:53:10;22;21;16
76330;PMS7003;65148;51.912;15.570;2023-08-12T07:08:11;21;21;18
76330;PMS7003;65148;51.912;15.570;2023-08-12T07:23:12;15;15;12
76330;PMS7003;65148;51.912;15.570;2023-08-12T07:38:29;17;17;14
76330;PMS7003;65148;51.912;15.570;2023-08-12T07:53:30;14;14;12
76330;PMS7003;65148;51.912;15.570;2023-08-12T08:08:31;15;14;12
76330;PMS7003;65148;51.912;15.570;2023-08-12T08:23:32;12;12;10
76330;PMS7003;65148;51.912;15.570;2023-08-12T08:38:51;11;11;10
76330;PMS7003;65148;51.912;15.570;2023-08-12T08:53:53;11;11;9
76330;PMS7003;65148;51.912;15.570;2023-08-12T09:08:56;13;12;9
76330;PMS7003;65148;51.912;15.570;2023-08-12T09:23:58;8;8;7
76330;PMS7003;65148;51.912;15.570;2023-08-12T09:39:18;12;11;10
76330;PMS7003;65148;51.912;15.570;2023-08-12T09:54:20;10;10;9
76330;PMS7003;65148;51.912;15.570;2023-08-12T10:09:21;8;8;7
76330;PMS7003;65148;51.912;15.570;2023-08-12T10:24:24;6;6;5
76330;PMS7003;65148;51.912;15.570;2023-08-12T10:39:27;5;5;4
76330;PMS7003;65148;51.912;15.570;2023-08-12T10:54:31;7;7;6
76330;PMS7003;65148;51.912;15.570;2023-08-12T11:09:34;7;7;6
76330;PMS7003;65148;51.912;15.570;2023-08-12T11:24:36;5;4;4
76330;PMS7003;65148;51.912;15.570;2023-08-12T11:40:02;8;8;7
76330;PMS7003;65148;51.912;15.570;2023-08-12T11:55:05;5;5;5
76330;PMS7003;65148;51.912;15.570;2023-08-12T12:10:06;13;13;10
76330;PMS7003;65148;51.912;15.570;2023-08-12T12:25:10;6;6;6
76330;PMS7003;65148;51.912;15.570;2023-08-12T12:40:29;7;7;6
76330;PMS7003;65148;51.912;15.570;2023-08-12T12:55:30;7;7;7
76330;PMS7003;65148;51.912;15.570;2023-08-12T13:10:31;8;8;7
76330;PMS7003;65148;51.912;15.570;2023-08-12T13:25:32;8;8;7
76330;PMS7003;65148;51.912;15.570;2023-08-12T13:40:34;10;9;8
76330;PMS7003;65148;51.912;15.570;2023-08-12T13:55:35;7;6;6
76330;PMS7003;65148;51.912;15.570;2023-08-12T14:10:36;8;8;7
76330;PMS7003;65148;51.912;15.570;2023-08-12T14:25:37;8;8;7
76330;PMS7003;65148;51.912;15.570;2023-08-12T14:40:38;7;6;6
76330;PMS7003;65148;51.912;15.570;2023-08-12T14:56:01;5;5;4
76330;PMS7003;65148;51.912;15.570;2023-08-12T15:11:02;3;3;3
76330;PMS7003;65148;51.912;15.570;2023-08-12T15:26:03;3;3;3
76330;PMS7003;65148;51.912;15.570;2023-08-12T15:41:14;8;6;5
76330;PMS7003;65148;51.912;15.570;2023-08-12T15:56:15;5;5;4
76330;PMS7003;65148;51.912;15.570;2023-08-12T16:11:16;8;8;6
76330;PMS7003;65148;51.912;15.570;2023-08-12T16:26:18;5;4;4
76330;PMS7003;65148;51.912;15.570;2023-08-12T16:41:19;5;5;5
76330;PMS7003;65148;51.912;15.570;2023-08-12T16:56:20;6;6;5
76330;PMS7003;65148;51.912;15.570;2023-08-12T17:11:21;6;6;5
76330;PMS7003;65148;51.912;15.570;2023-08-12T17:26:22;7;7;6
76330;PMS7003;65148;51.912;15.570;2023-08-12T17:41:44;9;9;7
76330;PMS7003;65148;51.912;15.570;2023-08-12T17:56:45;10;10;8
76330;PMS7003;65148;51.912;15.570;2023-08-12T18:11:46;12;11;9
76330;PMS7003;65148;51.912;15.570;2023-08-12T18:26:47;8;8;7
76330;PMS7003;65148;51.912;15.570;2023-08-12T18:42:15;10;9;8
76330;PMS7003;65148;51.912;15.570;2023-08-12T18:57:16;13;12;10
76330;PMS7003;65148;51.912;15.570;2023-08-12T19:12:17;27;24;18
76330;PMS7003;65148;51.912;15.570;2023-08-12T19:27:18;26;23;18
76330;PMS7003;65148;51.912;15.570;2023-08-12T19:42:37;39;35;24
76330;PMS7003;65148;51.912;15.570;2023-08-12T19:57:39;33;30;23
76330;PMS7003;65148;51.912;15.570;2023-08-12T20:12:40;23;22;17
76330;PMS7003;65148;51.912;15.570;2023-08-12T20:27:41;26;26;20
76330;PMS7003;65148;51.912;15.570;2023-08-12T20:43:00;13;13;10
76330;PMS7003;65148;51.912;15.570;2023-08-12T20:58:01;15;15;13
76330;PMS7003;65148;51.912;15.570;2023-08-12T21:13:02;13;13;11
76330;PMS7003;65148;51.912;15.570;2023-08-12T21:28:03;15;14;11
76330;PMS7003;65148;51.912;15.570;2023-08-12T21:43:21;18;18;15
76330;PMS7003;65148;51.912;15.570;2023-08-12T21:58:22;15;15;13
76330;PMS7003;65148;51.912;15.570;2023-08-12T22:13:23;14;14;13
76330;PMS7003;65148;51.912;15.570;2023-08-12T22:28:24;13;13;11
76330;PMS7003;65148;51.912;15.570;2023-08-12T22:43:43;14;13;10
76330;PMS7003;65148;51.912;15.570;2023-08-12T22:58:44;15;15;12
76330;PMS7003;65148;51.912;15.570;2023-08-12T23:13:45;10;10;9
76330;PMS7003;65148;51.912;15.570;2023-08-12T23:28:46;10;10;9
76330;PMS7003;65148;51.912;15.570;2023-08-12T23:44:05;9;9;8
76330;PMS7003;65148;51.912;15.570;2023-08-12T23:59:06;10;10;9
